Time;durP1;ratioP1;P1;durP2;ratioP2;P2;SDS_P1;SDS_P2;PMS_P1;PMS_P2;Temp;Humidity;BMP_temperature;BMP_pressure;BME280_temperature;BME280_humidity;BME280_pressure;Samples;Min_cycle;Max_cycle;Signal;HPM_P1;HPM_P2
2022/09/07 00:01:39;;;;;;;10.10;8.97;;;20.40;51.60;;;;;;5071735;28;20183;-45
2022/09/07 00:04:06;;;;;;;12.80;10.13;;;20.30;51.50;;;;;;5072188;28;20291;-45
2022/09/07 00:06:33;;;;;;;10.40;9.40;;;20.30;51.40;;;;;;5071578;28;20452;-44
2022/09/07 00:09:03;;;;;;;10.57;9.57;;;20.30;51.40;;;;;;5071628;28;20944;-44
2022/09/07 00:11:28;;;;;;;10.50;9.50;;;20.30;51.40;;;;;;5071579;28;20499;-44
2022/09/07 00:13:55;;;;;;;9.77;8.77;;;20.20;51.30;;;;;;5071856;28;20259;-44
2022/09/07 00:16:24;;;;;;;9.67;8.77;;;20.20;51.40;;;;;;5053498;28;20421;-44
2022/09/07 00:18:53;;;;;;;12.00;9.97;;;20.20;51.40;;;;;;5071765;28;20411;-44
2022/09/07 00:21:19;;;;;;;8.90;8.07;;;20.20;51.50;;;;;;5071657;28;20486;-44
2022/09/07 00:23:46;;;;;;;10.30;8.40;;;20.20;51.50;;;;;;5071557;28;20707;-44
2022/09/07 00:26:18;;;;;;;9.97;9.07;;;20.20;51.50;;;;;;5071213;28;20180;-44
2022/09/07 00:28:44;;;;;;;11.93;10.13;;;20.20;51.50;;;;;;5071674;28;20383;-44
2022/09/07 00:31:13;;;;;;;9.47;8.50;;;20.10;51.50;;;;;;5071504;28;20398;-44
2022/09/07 00:33:39;;;;;;;10.43;9.30;;;20.10;51.50;;;;;;5071532;28;20456;-44
2022/09/07 00:36:05;;;;;;;11.00;9.90;;;20.00;51.40;;;;;;5071047;28;20857;-44
2022/09/07 00:38:31;;;;;;;10.80;9.80;;;20.00;51.50;;;;;;5071391;28;20407;-45
2022/09/07 00:40:57;;;;;;;9.90;8.77;;;20.10;51.70;;;;;;5071698;28;20463;-44
2022/09/07 00:43:42;;;;;;;11.53;10.10;;;20.10;51.50;;;;;;5071415;28;20446;-44
2022/09/07 00:46:30;;;;;;;11.43;10.03;;;20.10;51.50;;;;;;5071147;28;20751;-45
2022/09/07 00:49:15;;;;;;;9.50;8.50;;;20.00;51.30;;;;;;5074191;28;20392;-44
2022/09/07 00:51:56;;;;;;;10.17;9.27;;;20.00;51.30;;;;;;5074955;28;20871;-45
2022/09/07 00:54:29;;;;;;;8.98;8.18;;;20.00;51.50;;;;;;5074724;28;20433;-44
2022/09/07 00:56:55;;;;;;;10.93;9.82;;;19.90;51.70;;;;;;5074577;28;20173;-44
2022/09/07 00:59:25;;;;;;;10.90;9.80;;;19.90;51.60;;;;;;5074724;28;20654;-45
2022/09/07 01:01:51;;;;;;;10.63;9.63;;;19.90;51.50;;;;;;5074786;28;20913;-45
2022/09/07 01:04:17;;;;;;;13.13;9.95;;;19.90;51.50;;;;;;5074798;28;20204;-44
2022/09/07 01:06:43;;;;;;;15.50;10.80;;;19.90;51.60;;;;;;5074696;28;20176;-44
2022/09/07 01:09:13;;;;;;;10.88;9.73;;;19.90;51.50;;;;;;5074628;28;20169;-44
2022/09/07 01:11:39;;;;;;;13.02;10.85;;;19.90;51.40;;;;;;5074824;28;20608;-44
2022/09/07 01:14:09;;;;;;;9.83;8.30;;;19.80;51.30;;;;;;5074427;28;20234;-44
2022/09/07 01:16:48;;;;;;;8.68;7.78;;;19.80;51.30;;;;;;5074400;28;20927;-44
2022/09/07 01:19:41;;;;;;;8.97;8.07;;;19.70;51.30;;;;;;5074425;28;20195;-44
2022/09/07 01:22:38;;;;;;;10.85;9.73;;;19.70;51.40;;;;;;5074655;28;20404;-44
2022/09/07 01:25:24;;;;;;;10.25;9.25;;;19.70;51.40;;;;;;5074334;28;20219;-44
2022/09/07 01:28:09;;;;;;;10.25;9.35;;;19.60;51.50;;;;;;5074247;28;20191;-44
2022/09/07 01:30:37;;;;;;;10.05;9.13;;;19.60;51.60;;;;;;5074253;28;20165;-44
2022/09/07 01:33:15;;;;;;;10.07;9.00;;;19.50;51.80;;;;;;5074097;28;20169;-44
2022/09/07 01:36:18;;;;;;;10.40;8.85;;;19.50;51.80;;;;;;5073781;28;20253;-44
2022/09/07 01:38:47;;;;;;;11.07;9.27;;;19.60;51.70;;;;;;5074058;28;20172;-45
2022/09/07 01:41:26;;;;;;;12.15;9.35;;;19.60;51.70;;;;;;5073965;28;20230;-44
2022/09/07 01:44:23;;;;;;;10.10;9.18;;;19.60;51.50;;;;;;5055918;28;20210;-44
2022/09/07 01:47:12;;;;;;;9.57;8.68;;;19.50;51.50;;;;;;5072931;28;20204;-44
2022/09/07 01:50:00;;;;;;;9.80;8.80;;;19.50;51.50;;;;;;5073852;28;20640;-44
2022/09/07 01:52:41;;;;;;;10.32;9.32;;;19.50;51.50;;;;;;5073759;28;20179;-44
2022/09/07 01:55:20;;;;;;;8.82;7.97;;;19.50;51.70;;;;;;5073940;28;20221;-44
2022/09/07 01:57:59;;;;;;;9.48;8.50;;;19.40;51.60;;;;;;5073426;28;20602;-44
2022/09/07 02:00:25;;;;;;;10.15;9.15;;;19.40;51.90;;;;;;5073780;28;20248;-44
2022/09/07 02:03:13;;;;;;;11.33;10.23;;;19.30;52.20;;;;;;5073808;28;20263;-44
2022/09/07 02:05:48;;;;;;;10.25;9.23;;;19.30;52.30;;;;;;5073184;28;20444;-45
2022/09/07 02:08:38;;;;;;;12.15;11.00;;;19.30;52.40;;;;;;5073659;28;20193;-45
2022/09/07 02:11:31;;;;;;;9.48;8.60;;;19.40;52.20;;;;;;5073710;28;20165;-44
2022/09/07 02:14:06;;;;;;;11.90;10.70;;;19.40;52.10;;;;;;5073150;28;20263;-44
2022/09/07 02:16:35;;;;;;;11.25;9.38;;;19.40;52.00;;;;;;5055821;28;20172;-44
2022/09/07 02:19:08;;;;;;;10.55;8.43;;;19.40;51.80;;;;;;5073479;28;20228;-44
2022/09/07 02:21:39;;;;;;;11.60;10.45;;;19.40;51.90;;;;;;5073317;28;20177;-44
2022/09/07 02:24:36;;;;;;;9.57;8.68;;;19.40;51.70;;;;;;5073052;28;20211;-44
2022/09/07 02:27:11;;;;;;;13.02;9.07;;;19.40;51.70;;;;;;5072979;28;20668;-44
2022/09/07 02:29:37;;;;;;;11.07;10.07;;;19.30;51.70;;;;;;5073283;28;20160;-44
2022/09/07 02:32:03;;;;;;;10.05;9.05;;;19.30;51.70;;;;;;5072989;28;20165;-45
2022/09/07 02:34:30;;;;;;;12.30;9.68;;;19.30;51.80;;;;;;5072725;28;20212;-44
2022/09/07 02:36:59;;;;;;;10.98;9.82;;;19.30;51.90;;;;;;5072780;28;20244;-44
2022/09/07 02:39:24;;;;;;;12.68;10.25;;;19.30;52.00;;;;;;5072977;28;20222;-44
2022/09/07 02:41:50;;;;;;;10.57;9.07;;;19.30;51.90;;;;;;5072931;28;20510;-44
2022/09/07 02:44:23;;;;;;;13.03;11.43;;;19.30;51.90;;;;;;5072636;28;20489;-44
2022/09/07 02:47:17;;;;;;;10.85;9.57;;;19.30;51.90;;;;;;5072516;28;20195;-44
2022/09/07 02:49:51;;;;;;;9.00;8.10;;;19.30;51.90;;;;;;5072636;28;20337;-44
2022/09/07 02:52:43;;;;;;;9.35;8.55;;;19.30;52.00;;;;;;5072537;28;20164;-44
2022/09/07 02:55:41;;;;;;;11.38;9.48;;;19.30;51.90;;;;;;5072586;28;20247;-44
2022/09/07 02:58:06;;;;;;;12.15;9.95;;;19.30;52.00;;;;;;4983269;28;20676;-44
2022/09/07 03:01:03;;;;;;;10.60;9.60;;;19.30;52.00;;;;;;5072838;28;20176;-44
2022/09/07 03:03:59;;;;;;;10.98;9.88;;;19.30;52.00;;;;;;5064072;28;20260;-45
2022/09/07 03:06:24;;;;;;;10.55;9.55;;;19.40;51.90;;;;;;5072102;28;20173;-45
2022/09/07 03:08:54;;;;;;;10.07;9.10;;;19.30;51.80;;;;;;5072720;28;20553;-44
2022/09/07 03:11:21;;;;;;;12.60;10.32;;;19.30;51.90;;;;;;5071743;28;20177;-44
2022/09/07 03:13:46;;;;;;;10.02;9.13;;;19.30;52.00;;;;;;5072219;28;20635;-45
2022/09/07 03:16:13;;;;;;;10.63;9.57;;;19.30;51.90;;;;;;5071986;28;20188;-45
2022/09/07 03:18:41;;;;;;;12.00;10.73;;;19.30;51.90;;;;;;5072350;28;20232;-44
2022/09/07 03:21:08;;;;;;;10.70;9.60;;;19.30;51.80;;;;;;5072107;28;20733;-44
2022/09/07 03:23:34;;;;;;;10.98;9.88;;;19.30;51.90;;;;;;5072092;28;20594;-45
2022/09/07 03:26:00;;;;;;;10.55;9.60;;;19.30;51.90;;;;;;5071832;28;20192;-45
2022/09/07 03:28:26;;;;;;;10.00;9.10;;;19.30;51.80;;;;;;5072149;28;20169;-45
2022/09/07 03:30:52;;;;;;;9.23;8.17;;;19.30;51.80;;;;;;5072186;28;20179;-44
2022/09/07 03:33:17;;;;;;;10.17;9.20;;;19.30;51.70;;;;;;5072133;28;20192;-44
2022/09/07 03:35:45;;;;;;;12.87;9.90;;;19.30;51.60;;;;;;5071573;28;20216;-44
2022/09/07 03:38:11;;;;;;;9.40;8.55;;;19.20;51.50;;;;;;5054043;28;20172;-44
2022/09/07 03:40:37;;;;;;;8.93;8.13;;;19.20;51.50;;;;;;5072304;28;20187;-44
2022/09/07 03:43:04;;;;;;;10.50;9.50;;;19.20;51.40;;;;;;5071923;28;20180;-44
2022/09/07 03:45:29;;;;;;;9.80;8.90;;;19.10;51.50;;;;;;5072155;28;20192;-45
2022/09/07 03:47:55;;;;;;;8.47;7.67;;;19.10;51.40;;;;;;5071851;28;20227;-44
2022/09/07 03:50:21;;;;;;;9.17;8.23;;;19.10;51.50;;;;;;5071745;28;20171;-44
2022/09/07 03:52:47;;;;;;;10.60;9.23;;;19.10;51.60;;;;;;5071930;28;20161;-44
2022/09/07 03:55:12;;;;;;;10.90;8.73;;;19.10;51.70;;;;;;5072018;28;20203;-44
2022/09/07 03:57:39;;;;;;;11.40;9.33;;;19.10;51.60;;;;;;5071738;28;20175;-44
2022/09/07 04:00:05;;;;;;;11.40;10.30;;;19.10;51.80;;;;;;5071837;28;20666;-44
2022/09/07 04:02:31;;;;;;;10.25;9.25;;;19.10;51.90;;;;;;5071829;28;20322;-45
2022/09/07 04:04:57;;;;;;;12.37;11.20;;;19.10;52.00;;;;;;5071755;28;20803;-44
2022/09/07 04:07:23;;;;;;;11.20;10.13;;;19.10;52.20;;;;;;5071537;28;20176;-44
2022/09/07 04:09:50;;;;;;;11.67;10.47;;;19.10;52.30;;;;;;5071997;28;20169;-44
2022/09/07 04:12:16;;;;;;;11.13;10.05;;;19.10;52.20;;;;;;5071738;28;20251;-45
2022/09/07 04:14:42;;;;;;;10.48;9.50;;;19.10;52.00;;;;;;5071613;28;20757;-44
2022/09/07 04:17:08;;;;;;;13.70;9.50;;;19.10;51.90;;;;;;5071797;28;20263;-44
2022/09/07 04:19:33;;;;;;;10.57;9.57;;;19.10;51.90;;;;;;5071782;28;20921;-44
2022/09/07 04:21:59;;;;;;;10.63;9.30;;;19.20;51.80;;;;;;5073198;28;20270;-44
2022/09/07 04:24:25;;;;;;;10.03;9.03;;;19.10;51.80;;;;;;5075326;28;20211;-44
2022/09/07 04:26:51;;;;;;;11.20;10.07;;;19.10;51.90;;;;;;5075525;28;20259;-44
2022/09/07 04:29:17;;;;;;;10.60;9.57;;;19.10;52.10;;;;;;5075666;28;20398;-44
2022/09/07 04:31:43;;;;;;;10.60;9.60;;;19.10;52.40;;;;;;5076055;28;20181;-44
2022/09/07 04:34:10;;;;;;;11.13;10.03;;;19.00;52.40;;;;;;5075707;28;20778;-44
2022/09/07 04:36:36;;;;;;;11.68;10.55;;;19.00;52.40;;;;;;5075688;28;20176;-44
2022/09/07 04:39:04;;;;;;;11.80;10.60;;;19.10;52.40;;;;;;5075346;28;20255;-44
2022/09/07 04:41:32;;;;;;;11.60;10.43;;;19.10;52.30;;;;;;5075491;28;20168;-44
2022/09/07 04:44:02;;;;;;;11.82;10.35;;;19.10;52.20;;;;;;5074866;28;20266;-45
2022/09/07 04:46:33;;;;;;;10.88;9.77;;;19.10;52.10;;;;;;5074721;28;20176;-44
2022/09/07 04:49:03;;;;;;;11.93;10.80;;;19.10;52.20;;;;;;5074923;28;20177;-44
2022/09/07 04:51:30;;;;;;;13.18;9.77;;;19.10;52.20;;;;;;5057068;28;20256;-45
2022/09/07 04:53:58;;;;;;;10.25;9.25;;;19.10;52.30;;;;;;5074826;28;20168;-44
2022/09/07 04:56:25;;;;;;;13.07;11.18;;;19.10;52.30;;;;;;5074574;28;20258;-44
2022/09/07 04:58:51;;;;;;;14.20;11.43;;;19.10;52.30;;;;;;5074794;28;20177;-45
2022/09/07 05:01:20;;;;;;;10.05;8.98;;;19.10;52.50;;;;;;5074603;28;20200;-45
2022/09/07 05:03:46;;;;;;;11.43;10.30;;;19.20;52.60;;;;;;5074706;28;20220;-45
2022/09/07 05:06:13;;;;;;;13.00;11.70;;;19.30;52.70;;;;;;5074339;28;20192;-45
2022/09/07 05:08:42;;;;;;;12.93;10.38;;;19.30;52.90;;;;;;5074661;28;20164;-44
2022/09/07 05:11:09;;;;;;;11.57;10.57;;;19.30;53.00;;;;;;5074837;28;20177;-45
2022/09/07 05:13:35;;;;;;;14.13;12.77;;;19.40;53.10;;;;;;5074739;28;20623;-44
2022/09/07 05:16:08;;;;;;;12.10;10.98;;;19.50;53.20;;;;;;5074259;28;20199;-45
2022/09/07 05:18:34;;;;;;;12.18;11.02;;;19.50;53.10;;;;;;5074711;28;20164;-44
2022/09/07 05:21:11;;;;;;;15.07;12.27;;;19.60;53.10;;;;;;5074308;28;20173;-45
2022/09/07 05:23:38;;;;;;;13.90;11.80;;;19.60;53.30;;;;;;5074332;28;20457;-44
2022/09/07 05:26:04;;;;;;;13.35;11.85;;;19.70;53.60;;;;;;5073869;28;20729;-44
2022/09/07 05:28:31;;;;;;;10.90;9.80;;;19.70;53.50;;;;;;5074331;28;20753;-44
2022/09/07 05:31:09;;;;;;;13.65;11.60;;;19.70;53.50;;;;;;5074538;28;20180;-44
2022/09/07 05:33:35;;;;;;;12.98;11.68;;;19.80;53.60;;;;;;5073297;28;20248;-45
2022/09/07 05:36:02;;;;;;;13.52;12.23;;;19.80;53.60;;;;;;5073722;28;20617;-45
2022/09/07 05:38:28;;;;;;;17.10;13.60;;;19.90;53.80;;;;;;5074500;28;20251;-44
2022/09/07 05:40:54;;;;;;;15.83;13.30;;;19.90;53.90;;;;;;5073999;28;20255;-45
2022/09/07 05:43:20;;;;;;;16.95;14.98;;;19.90;54.00;;;;;;5073863;28;20454;-44
2022/09/07 05:45:47;;;;;;;14.02;12.63;;;20.00;54.20;;;;;;5073756;28;20204;-45
2022/09/07 05:48:12;;;;;;;14.15;12.63;;;20.10;54.20;;;;;;5073860;28;20177;-44
2022/09/07 05:50:39;;;;;;;15.47;12.73;;;20.10;54.20;;;;;;5073936;28;20259;-44
2022/09/07 05:53:05;;;;;;;14.50;13.20;;;20.20;54.00;;;;;;5073596;28;20172;-45
2022/09/07 05:55:31;;;;;;;15.23;13.80;;;20.30;54.10;;;;;;5073450;28;20287;-45
2022/09/07 05:57:57;;;;;;;16.73;14.00;;;20.40;54.10;;;;;;5073595;28;20302;-45
2022/09/07 06:00:23;;;;;;;14.60;13.10;;;20.50;54.10;;;;;;5073729;28;20169;-45
2022/09/07 06:02:48;;;;;;;14.23;12.83;;;20.60;54.10;;;;;;5073707;28;20175;-45
2022/09/07 06:05:14;;;;;;;15.27;13.87;;;20.70;54.20;;;;;;5073338;28;20965;-45
2022/09/07 06:07:40;;;;;;;15.30;13.77;;;20.90;54.10;;;;;;5073361;28;20161;-44
2022/09/07 06:10:07;;;;;;;13.45;11.90;;;21.00;54.10;;;;;;5073321;28;20399;-44
2022/09/07 06:12:34;;;;;;;15.63;13.95;;;21.10;54.10;;;;;;5073388;28;20591;-45
2022/09/07 06:15:04;;;;;;;18.27;16.52;;;21.20;54.10;;;;;;5073217;28;20668;-45
2022/09/07 06:17:30;;;;;;;15.83;14.23;;;21.30;54.20;;;;;;5072976;28;20185;-45
2022/09/07 06:19:56;;;;;;;18.45;15.38;;;21.40;54.10;;;;;;5073176;28;20418;-45
2022/09/07 06:22:22;;;;;;;18.33;16.37;;;21.50;54.20;;;;;;5073042;28;20597;-45
2022/09/07 06:24:48;;;;;;;17.37;15.53;;;21.50;54.30;;;;;;5072980;28;20942;-44
2022/09/07 06:27:14;;;;;;;18.70;16.83;;;21.60;54.40;;;;;;5072779;28;20407;-45
2022/09/07 06:29:39;;;;;;;18.30;15.90;;;21.70;54.70;;;;;;5073135;28;20543;-44
2022/09/07 06:32:05;;;;;;;18.13;16.33;;;21.80;54.90;;;;;;5072887;28;20569;-45
2022/09/07 06:34:31;;;;;;;18.93;16.97;;;22.00;55.10;;;;;;5072941;28;20580;-44
2022/09/07 06:36:57;;;;;;;16.90;15.17;;;22.10;55.00;;;;;;5072643;28;20172;-44
2022/09/07 06:39:23;;;;;;;19.70;17.60;;;22.20;54.70;;;;;;5073025;28;20237;-44
2022/09/07 06:41:49;;;;;;;16.70;15.03;;;22.20;54.50;;;;;;5072770;28;20883;-44
2022/09/07 06:44:15;;;;;;;18.17;16.27;;;22.30;54.50;;;;;;5072480;28;20219;-45
2022/09/07 06:46:40;;;;;;;17.57;15.77;;;22.30;54.10;;;;;;5072346;28;20409;-45
2022/09/07 06:49:06;;;;;;;17.03;15.33;;;22.30;54.30;;;;;;5072587;28;20173;-44
2022/09/07 06:51:32;;;;;;;17.00;15.27;;;22.40;54.10;;;;;;5072545;28;20173;-46
2022/09/07 06:54:00;;;;;;;17.03;15.27;;;22.40;54.30;;;;;;5072475;28;20183;-44
2022/09/07 06:56:27;;;;;;;17.30;15.17;;;22.40;54.10;;;;;;5072466;28;20255;-45
2022/09/07 06:58:53;;;;;;;17.90;16.17;;;22.50;54.20;;;;;;5072750;28;20977;-45
2022/09/07 07:01:19;;;;;;;17.30;15.50;;;22.60;54.50;;;;;;5072406;28;20503;-45
2022/09/07 07:03:46;;;;;;;17.20;15.10;;;22.60;54.30;;;;;;5072619;28;20533;-45
2022/09/07 07:06:12;;;;;;;16.97;15.17;;;22.70;54.10;;;;;;5072043;28;20430;-44
2022/09/07 07:08:39;;;;;;;17.70;15.43;;;22.80;54.00;;;;;;5072341;28;20828;-44
2022/09/07 07:11:11;;;;;;;18.90;16.90;;;22.90;54.30;;;;;;5072249;28;20399;-44
2022/09/07 07:13:38;;;;;;;16.10;14.60;;;23.00;54.10;;;;;;5072274;28;20926;-45
2022/09/07 07:16:06;;;;;;;14.53;12.83;;;23.20;53.90;;;;;;5071928;28;20431;-44
2022/09/07 07:18:33;;;;;;;15.30;13.73;;;23.30;53.80;;;;;;5072228;28;20419;-44
2022/09/07 07:21:05;;;;;;;16.87;15.17;;;23.30;53.30;;;;;;5072443;28;20529;-45
2022/09/07 07:23:33;;;;;;;15.13;13.13;;;23.30;53.00;;;;;;5072119;28;20462;-44
2022/09/07 07:26:19;;;;;;;15.63;14.03;;;23.30;52.70;;;;;;5072141;28;20783;-43
2022/09/07 07:28:47;;;;;;;15.03;13.07;;;23.40;52.90;;;;;;5072002;28;20874;-44
2022/09/07 07:31:15;;;;;;;19.90;13.73;;;23.40;52.80;;;;;;5071924;28;20498;-44
2022/09/07 07:33:42;;;;;;;15.47;13.80;;;23.50;53.00;;;;;;5072044;28;20844;-43
2022/09/07 07:36:15;;;;;;;14.67;13.20;;;23.50;52.50;;;;;;5071571;28;20455;-44
2022/09/07 07:38:43;;;;;;;14.23;12.93;;;23.60;52.80;;;;;;5071963;28;20471;-43
2022/09/07 07:41:09;;;;;;;15.33;13.83;;;23.70;52.70;;;;;;5071910;28;20479;-43
2022/09/07 07:43:35;;;;;;;15.43;13.83;;;23.80;52.40;;;;;;5071869;28;20458;-43
2022/09/07 07:46:01;;;;;;;15.50;13.93;;;23.90;52.50;;;;;;5071908;28;20778;-44
2022/09/07 07:48:28;;;;;;;18.40;13.53;;;24.10;52.50;;;;;;5072043;28;20407;-44
2022/09/07 07:50:58;;;;;;;15.10;13.57;;;24.10;52.50;;;;;;5072178;28;20414;-44
2022/09/07 07:53:25;;;;;;;13.30;11.97;;;24.30;52.90;;;;;;5071847;28;20814;-44
2022/09/07 07:55:51;;;;;;;15.57;12.73;;;24.30;52.10;;;;;;5071546;28;20440;-44
2022/09/07 07:58:17;;;;;;;13.00;11.77;;;24.50;52.30;;;;;;5075741;28;20415;-44
2022/09/07 08:00:43;;;;;;;15.27;12.87;;;24.60;52.50;;;;;;5076208;28;20412;-44
2022/09/07 08:03:09;;;;;;;14.90;13.30;;;24.70;52.10;;;;;;5076042;28;20419;-44
2022/09/07 08:05:36;;;;;;;14.10;12.77;;;24.80;51.90;;;;;;5075583;28;20448;-43
2022/09/07 08:08:02;;;;;;;14.33;12.93;;;24.90;50.80;;;;;;5075748;28;20755;-44
2022/09/07 08:10:28;;;;;;;15.20;13.80;;;25.00;51.10;;;;;;5075684;28;20442;-44
2022/09/07 08:12:55;;;;;;;14.00;12.60;;;25.10;50.80;;;;;;5075566;28;20406;-44
2022/09/07 08:15:21;;;;;;;13.10;11.40;;;25.20;50.50;;;;;;5075543;28;20431;-43
2022/09/07 08:17:48;;;;;;;12.60;11.30;;;25.30;50.40;;;;;;5075609;28;20417;-44
2022/09/07 08:20:15;;;;;;;13.83;12.13;;;25.40;50.00;;;;;;5075823;28;20410;-44
2022/09/07 08:22:40;;;;;;;13.83;12.53;;;25.40;48.20;;;;;;5075572;28;20471;-44
2022/09/07 08:25:07;;;;;;;12.17;11.17;;;25.40;49.60;;;;;;5075201;28;20458;-44
2022/09/07 08:27:33;;;;;;;12.40;11.17;;;25.50;49.50;;;;;;5075157;28;20459;-43
2022/09/07 08:29:59;;;;;;;13.30;12.10;;;25.70;49.70;;;;;;5075703;28;20747;-44
2022/09/07 08:32:28;;;;;;;13.50;12.20;;;25.80;49.50;;;;;;5075525;28;20405;-44
2022/09/07 08:34:54;;;;;;;13.73;12.33;;;25.90;48.70;;;;;;5075228;28;20822;-44
2022/09/07 08:37:20;;;;;;;13.47;12.20;;;26.00;49.50;;;;;;5075338;28;20527;-44
2022/09/07 08:39:45;;;;;;;13.30;12.00;;;26.10;49.00;;;;;;5075206;28;20497;-44
2022/09/07 08:42:32;;;;;;;13.43;12.17;;;26.10;48.90;;;;;;5075263;28;20252;-44
2022/09/07 08:45:25;;;;;;;12.27;10.73;;;26.20;48.30;;;;;;5075304;28;20611;-44
2022/09/07 08:47:51;;;;;;;10.33;9.33;;;26.30;48.90;;;;;;5075214;28;20543;-44
2022/09/07 08:50:29;;;;;;;11.63;10.53;;;26.40;48.90;;;;;;5075304;28;20407;-44
2022/09/07 08:53:14;;;;;;;12.43;11.10;;;26.50;48.40;;;;;;5075162;28;20423;-44
2022/09/07 08:55:56;;;;;;;12.57;10.90;;;26.60;48.20;;;;;;5074808;28;20419;-44
2022/09/07 08:58:24;;;;;;;11.40;10.30;;;26.70;48.00;;;;;;5075150;28;20470;-44
2022/09/07 09:00:50;;;;;;;12.00;10.77;;;26.70;48.00;;;;;;5074961;28;20414;-44
2022/09/07 09:03:20;;;;;;;13.00;10.00;;;26.80;47.50;;;;;;5074916;28;20410;-44
2022/09/07 09:06:06;;;;;;;12.57;11.37;;;26.90;47.70;;;;;;5074399;28;20989;-45
2022/09/07 09:08:51;;;;;;;11.03;9.93;;;27.00;48.00;;;;;;5073524;28;20427;-44
2022/09/07 09:11:33;;;;;;;11.93;10.70;;;27.20;48.50;;;;;;5074509;28;20411;-45
2022/09/07 09:14:39;;;;;;;14.10;11.13;;;27.20;48.30;;;;;;5074396;28;20438;-45
2022/09/07 09:17:34;;;;;;;12.97;11.77;;;27.30;47.50;;;;;;5051553;28;20449;-45
2022/09/07 09:20:15;;;;;;;13.30;12.10;;;27.30;46.50;;;;;;5053155;28;20771;-45
2022/09/07 09:22:41;;;;;;;18.50;11.40;;;27.20;46.40;;;;;;5074348;28;20411;-45
2022/09/07 09:25:25;;;;;;;11.77;10.53;;;27.30;47.10;;;;;;5074250;28;20450;-45
2022/09/07 09:27:51;;;;;;;11.40;10.40;;;27.40;47.10;;;;;;5074094;28;20406;-44
2022/09/07 09:30:21;;;;;;;11.47;10.47;;;27.50;46.90;;;;;;5074181;28;20411;-44
2022/09/07 09:33:10;;;;;;;12.40;11.30;;;27.50;46.50;;;;;;5074440;28;20438;-45
2022/09/07 09:35:37;;;;;;;12.53;11.43;;;27.60;46.20;;;;;;5073798;28;20471;-45
2022/09/07 09:38:03;;;;;;;12.90;11.83;;;27.60;46.30;;;;;;5074188;28;20399;-44
2022/09/07 09:40:38;;;;;;;12.00;10.90;;;27.70;46.00;;;;;;5073951;28;20491;-45
2022/09/07 09:43:22;;;;;;;9.97;9.17;;;27.80;45.90;;;;;;5073913;28;20393;-45
2022/09/07 09:45:51;;;;;;;13.40;12.10;;;28.00;47.00;;;;;;5073595;28;20510;-45
2022/09/07 09:48:20;;;;;;;12.27;11.17;;;28.10;46.50;;;;;;5073862;28;20403;-44
2022/09/07 09:50:53;;;;;;;12.40;11.40;;;28.10;44.80;;;;;;5074061;28;20473;-45
2022/09/07 09:53:36;;;;;;;11.30;10.20;;;28.10;45.20;;;;;;5073803;28;20391;-44
2022/09/07 09:56:06;;;;;;;11.27;10.30;;;28.10;45.50;;;;;;5073441;28;20506;-45
2022/09/07 09:58:36;;;;;;;12.27;11.13;;;28.00;45.60;;;;;;5073694;28;20410;-45
2022/09/07 10:01:31;;;;;;;12.77;11.47;;;28.00;44.50;;;;;;5073611;28;20486;-45
2022/09/07 10:04:19;;;;;;;12.03;10.97;;;28.00;45.20;;;;;;5073758;28;20449;-43
2022/09/07 10:06:54;;;;;;;12.37;11.23;;;28.00;45.20;;;;;;5073652;28;20533;-44
2022/09/07 10:09:23;;;;;;;11.90;10.73;;;28.00;45.30;;;;;;5073505;28;20398;-44
2022/09/07 10:11:58;;;;;;;11.87;10.77;;;27.90;45.10;;;;;;5073655;28;20743;-45
2022/09/07 10:14:31;;;;;;;12.53;11.33;;;27.90;44.70;;;;;;5073576;28;20660;-44
2022/09/07 10:16:58;;;;;;;12.13;11.03;;;27.90;44.70;;;;;;5073317;28;20569;-44
2022/09/07 10:19:39;;;;;;;13.20;12.00;;;27.80;45.00;;;;;;5073001;28;20414;-45
2022/09/07 10:22:31;;;;;;;12.90;11.40;;;27.80;44.60;;;;;;5073383;28;20422;-45
2022/09/07 10:24:59;;;;;;;12.43;11.27;;;27.80;44.70;;;;;;5073048;28;20512;-45
2022/09/07 10:27:35;;;;;;;11.40;10.17;;;27.70;44.80;;;;;;5072760;28;20895;-44
2022/09/07 10:30:08;;;;;;;12.10;9.73;;;27.70;45.60;;;;;;5072989;28;20439;-44
2022/09/07 10:32:39;;;;;;;12.60;11.50;;;27.70;44.70;;;;;;5073232;28;20752;-44
2022/09/07 10:35:32;;;;;;;11.00;10.00;;;27.70;45.20;;;;;;5072893;28;20451;-44
2022/09/07 10:38:17;;;;;;;11.37;10.37;;;27.70;44.80;;;;;;5073149;28;20392;-44
2022/09/07 10:40:50;;;;;;;11.73;10.73;;;27.70;44.90;;;;;;5072803;28;20915;-43
2022/09/07 10:43:39;;;;;;;10.93;9.83;;;27.60;45.10;;;;;;5072665;28;20426;-44
2022/09/07 10:46:12;;;;;;;11.10;10.13;;;27.60;45.00;;;;;;5072459;28;20421;-43
2022/09/07 10:49:04;;;;;;;11.27;10.27;;;27.60;45.20;;;;;;5072751;28;20431;-44
2022/09/07 10:51:36;;;;;;;10.77;9.67;;;27.60;44.70;;;;;;5072894;28;20751;-44
2022/09/07 10:54:01;;;;;;;11.53;10.33;;;27.50;44.60;;;;;;5072735;28;20411;-44
2022/09/07 10:56:34;;;;;;;11.33;10.43;;;27.50;45.40;;;;;;5072207;28;20913;-44
2022/09/07 10:59:38;;;;;;;13.53;11.17;;;27.60;45.40;;;;;;5072526;28;20185;-44
2022/09/07 11:02:42;;;;;;;11.40;10.40;;;27.70;45.10;;;;;;5071672;28;20427;-43
2022/09/07 11:05:25;;;;;;;10.90;9.90;;;27.70;45.20;;;;;;5072493;28;20783;-44
2022/09/07 11:08:15;;;;;;;12.13;10.87;;;27.80;44.70;;;;;;5072189;28;20437;-44
2022/09/07 11:11:05;;;;;;;10.03;9.23;;;27.80;45.10;;;;;;5072287;28;20423;-43
2022/09/07 11:13:37;;;;;;;12.47;10.10;;;27.80;45.20;;;;;;5072291;28;20387;-43
2022/09/07 11:16:13;;;;;;;27.13;11.43;;;27.90;45.10;;;;;;5071972;28;20572;-43
2022/09/07 11:18:57;;;;;;;12.73;10.00;;;28.00;45.20;;;;;;5072441;28;20410;-45
2022/09/07 11:21:47;;;;;;;11.43;9.43;;;28.10;45.30;;;;;;5072284;28;20415;-44
2022/09/07 11:24:30;;;;;;;11.63;10.63;;;28.10;45.10;;;;;;5071968;28;20473;-44
2022/09/07 11:27:05;;;;;;;11.63;10.60;;;28.10;45.50;;;;;;5072093;28;20395;-44
2022/09/07 11:29:49;;;;;;;11.23;10.03;;;28.20;44.60;;;;;;5072461;28;20390;-44
2022/09/07 11:32:23;;;;;;;13.30;12.03;;;28.10;44.70;;;;;;5071427;28;20716;-43
2022/09/07 11:34:58;;;;;;;12.60;11.50;;;28.10;44.70;;;;;;5071898;28;20529;-43
2022/09/07 11:37:58;;;;;;;12.13;10.87;;;28.20;44.30;;;;;;5071972;28;20786;-44
2022/09/07 11:40:34;;;;;;;11.63;10.63;;;28.20;44.30;;;;;;5071883;28;20419;-44
2022/09/07 11:43:31;;;;;;;12.20;11.00;;;28.20;43.90;;;;;;5071950;28;20899;-44
2022/09/07 11:45:58;;;;;;;12.23;11.23;;;28.20;43.60;;;;;;5070092;28;20445;-43
2022/09/07 11:50:59;;;;;;;12.50;11.43;;;28.30;44.10;;;;;;5050041;28;20593;-42
2022/09/07 11:53:35;;;;;;;11.83;10.63;;;28.40;44.20;;;;;;5051933;28;20411;-41
2022/09/07 11:56:30;;;;;;;12.20;10.90;;;28.60;44.40;;;;;;5052011;28;20716;-41
2022/09/07 11:59:11;;;;;;;11.07;9.97;;;28.70;44.40;;;;;;5050482;28;20428;-41
2022/09/07 12:01:46;;;;;;;12.20;11.00;;;28.80;43.60;;;;;;5051838;28;20398;-42
2022/09/07 12:04:42;;;;;;;12.23;10.03;;;28.90;43.50;;;;;;5051732;28;20469;-41
2022/09/07 12:07:33;;;;;;;12.50;11.40;;;29.00;43.70;;;;;;5051487;28;20407;-41
2022/09/07 12:10:27;;;;;;;11.80;10.70;;;29.10;43.50;;;;;;5051865;28;20420;-42
2022/09/07 12:13:27;;;;;;;11.33;9.57;;;29.10;42.20;;;;;;5051842;28;20404;-43
2022/09/07 12:16:05;;;;;;;11.37;10.37;;;29.10;42.20;;;;;;5051417;28;20923;-42
2022/09/07 12:18:33;;;;;;;10.87;9.77;;;29.10;43.00;;;;;;5051342;28;20502;-40
2022/09/07 12:20:59;;;;;;;11.67;10.50;;;29.10;42.40;;;;;;5051662;28;20499;-41
2022/09/07 12:23:30;;;;;;;17.60;10.57;;;29.10;42.30;;;;;;5051569;28;20451;-42
2022/09/07 12:26:29;;;;;;;12.00;10.37;;;29.00;41.40;;;;;;5051363;28;20169;-40
2022/09/07 12:28:55;;;;;;;12.13;10.23;;;28.90;42.10;;;;;;5051517;28;20934;-39
2022/09/07 12:31:41;;;;;;;11.50;10.40;;;28.80;42.40;;;;;;5051587;28;20459;-41
2022/09/07 12:34:29;;;;;;;11.47;10.27;;;28.70;42.80;;;;;;5051511;28;20169;-41
2022/09/07 12:36:59;;;;;;;11.07;9.90;;;28.60;42.70;;;;;;5050251;28;20455;-40
2022/09/07 12:39:31;;;;;;;11.93;10.90;;;28.50;43.10;;;;;;5051421;28;20428;-42
2022/09/07 12:42:06;;;;;;;9.87;9.00;;;28.50;43.10;;;;;;5051718;28;20395;-42
2022/09/07 12:44:33;;;;;;;11.57;9.83;;;28.40;42.80;;;;;;5055065;28;20474;-40
2022/09/07 12:47:02;;;;;;;9.73;8.60;;;28.40;43.10;;;;;;5054853;28;20968;-42
2022/09/07 12:49:51;;;;;;;10.73;9.77;;;28.30;43.00;;;;;;5055014;28;20451;-40
2022/09/07 12:52:32;;;;;;;10.33;8.03;;;28.20;42.80;;;;;;5055047;28;20380;-42
2022/09/07 12:55:08;;;;;;;10.77;9.77;;;28.20;43.10;;;;;;5055012;28;20423;-43
2022/09/07 12:57:58;;;;;;;12.37;10.60;;;28.00;43.30;;;;;;5054962;28;20408;-43
2022/09/07 13:01:02;;;;;;;9.97;9.03;;;28.00;43.10;;;;;;5054755;28;20454;-43
2022/09/07 13:03:54;;;;;;;13.27;10.83;;;28.00;43.70;;;;;;5054636;28;20736;-42